createdAt,value
2024-05-09T00:01:29.910Z,101447.00
2024-05-09T00:03:57.011Z,101446.00
2024-05-09T00:06:24.118Z,101417.00
2024-05-09T00:08:51.226Z,101453.00
2024-05-09T00:11:18.437Z,101450.00
2024-05-09T00:13:45.703Z,101453.00
2024-05-09T00:16:12.735Z,101441.00
2024-05-09T00:18:39.892Z,101438.00
2024-05-09T00:21:09.510Z,101447.00
2024-05-09T00:23:37.066Z,101432.00
2024-05-09T00:26:04.543Z,101429.00
2024-05-09T00:28:31.711Z,101429.00
2024-05-09T00:30:58.869Z,101412.00
2024-05-09T00:33:26.274Z,101427.00
2024-05-09T00:35:53.516Z,101430.00
2024-05-09T00:38:20.692Z,101429.00
2024-05-09T00:40:47.838Z,101422.00
2024-05-09T00:43:15.609Z,101421.00
2024-05-09T00:45:44.016Z,101428.00
2024-05-09T00:48:17.277Z,101419.00
2024-05-09T00:50:48.009Z,101412.00
2024-05-09T00:53:17.326Z,101409.00
2024-05-09T00:55:46.131Z,101423.00
2024-05-09T00:58:16.871Z,101420.00
2024-05-09T01:00:44.949Z,101418.00
2024-05-09T01:03:13.918Z,101421.00
2024-05-09T01:05:43.215Z,101392.00
2024-05-09T01:08:11.933Z,101414.00
2024-05-09T01:10:40.779Z,101420.00
2024-05-09T01:13:10.121Z,101417.00
2024-05-09T01:15:37.181Z,101399.00
2024-05-09T01:18:11.663Z,101418.00
2024-05-09T01:20:43.083Z,101420.00
2024-05-09T01:23:15.156Z,101392.00
2024-05-09T01:25:44.990Z,101421.00
2024-05-09T01:28:12.578Z,101404.00
2024-05-09T01:30:39.699Z,101414.00
2024-05-09T01:33:09.294Z,101407.00
2024-05-09T01:35:38.905Z,101409.00
2024-05-09T01:38:07.725Z,101411.00
2024-05-09T01:40:38.764Z,101404.00
2024-05-09T01:43:11.245Z,101410.00
2024-05-09T01:45:41.280Z,101412.00
2024-05-09T01:48:09.611Z,101409.00
2024-05-09T01:50:40.833Z,101409.00
2024-05-09T01:53:15.284Z,101415.00
2024-05-09T01:55:43.489Z,101402.00
2024-05-09T01:58:10.789Z,101420.00
2024-05-09T02:00:42.182Z,101402.00
2024-05-09T02:03:15.901Z,101427.00
2024-05-09T02:05:47.562Z,101422.00
2024-05-09T02:08:21.238Z,101429.00
2024-05-09T02:10:50.672Z,101421.00
2024-05-09T02:13:21.389Z,101420.00
2024-05-09T02:15:52.275Z,101429.00
2024-05-09T02:18:22.752Z,101428.00
2024-05-09T02:20:50.273Z,101420.00
2024-05-09T02:23:18.300Z,101428.00
2024-05-09T02:25:45.645Z,101414.00
2024-05-09T02:28:12.915Z,101427.00
2024-05-09T02:30:41.839Z,101416.00
2024-05-09T02:33:12.373Z,101419.00
2024-05-09T02:35:42.756Z,101414.00
2024-05-09T02:38:10.686Z,101419.00
2024-05-09T02:40:39.519Z,101411.00
2024-05-09T02:43:10.533Z,101402.00
2024-05-09T02:45:39.689Z,101400.00
2024-05-09T02:48:10.282Z,101400.00
2024-05-09T02:50:39.615Z,101411.00
2024-05-09T02:53:09.100Z,101407.00
2024-05-09T02:55:37.689Z,101398.00
2024-05-09T02:58:06.979Z,101391.00
2024-05-09T03:00:39.031Z,101401.00
2024-05-09T03:03:10.779Z,101398.00
2024-05-09T03:05:40.514Z,101398.00
2024-05-09T03:08:08.178Z,101411.00
2024-05-09T03:10:37.812Z,101372.00
2024-05-09T03:13:12.898Z,101408.00
2024-05-09T03:15:41.389Z,101408.00
2024-05-09T03:18:09.180Z,101389.00
2024-05-09T03:20:37.217Z,101407.00
2024-05-09T03:23:08.093Z,101416.00
2024-05-09T03:25:36.186Z,101409.00
2024-05-09T03:28:03.680Z,101403.00
2024-05-09T03:30:39.529Z,101411.00
2024-05-09T03:33:18.604Z,101412.00
2024-05-09T03:35:48.010Z,101404.00
2024-05-09T03:38:15.481Z,101416.00
2024-05-09T03:40:50.780Z,101411.00
2024-05-09T03:43:19.876Z,101421.00
2024-05-09T03:45:49.664Z,101417.00
2024-05-09T03:48:17.275Z,101415.00
2024-05-09T03:50:44.737Z,101406.00
2024-05-09T03:53:14.246Z,101408.00
2024-05-09T03:55:41.519Z,101416.00
2024-05-09T03:58:08.977Z,101410.00
2024-05-09T04:00:39.265Z,101410.00
2024-05-09T04:03:10.996Z,101413.00
2024-05-09T04:05:42.106Z,101413.00
2024-05-09T04:08:10.858Z,101389.00
2024-05-09T04:10:38.195Z,101409.00
2024-05-09T04:13:05.707Z,101394.00
2024-05-09T04:15:33.037Z,101412.00
2024-05-09T04:18:01.320Z,101388.00
2024-05-09T04:20:37.102Z,101383.00
2024-05-09T04:23:09.470Z,101416.00
2024-05-09T04:25:37.388Z,101416.00
2024-05-09T04:28:05.559Z,101399.00
2024-05-09T04:30:38.550Z,101418.00
2024-05-09T04:33:11.306Z,101414.00
2024-05-09T04:35:42.299Z,101414.00
2024-05-09T04:38:10.193Z,101420.00
2024-05-09T04:40:37.951Z,101407.00
2024-05-09T04:43:06.365Z,101416.00
2024-05-09T04:45:33.748Z,101414.00
2024-05-09T04:48:01.660Z,101418.00
2024-05-09T04:50:35.724Z,101418.00
2024-05-09T04:53:10.973Z,101416.00
2024-05-09T04:55:40.473Z,101413.00
2024-05-09T04:58:14.210Z,101433.00
2024-05-09T05:00:41.961Z,101436.00
2024-05-09T05:03:14.431Z,101440.00
2024-05-09T05:05:45.170Z,101440.00
2024-05-09T05:08:14.346Z,101434.00
2024-05-09T05:10:43.478Z,101438.00
2024-05-09T05:13:23.258Z,101416.00
2024-05-09T05:15:58.476Z,101435.00
2024-05-09T05:18:29.557Z,101438.00
2024-05-09T05:20:58.210Z,101431.00
2024-05-09T05:23:25.486Z,101438.00
2024-05-09T05:25:54.190Z,101430.00
2024-05-09T05:28:22.383Z,101434.00
2024-05-09T05:30:49.862Z,101439.00
2024-05-09T05:33:22.595Z,101428.00
2024-05-09T05:35:50.306Z,101440.00
2024-05-09T05:38:17.490Z,101444.00
2024-05-09T05:40:44.664Z,101433.00
2024-05-09T05:43:18.845Z,101438.00
2024-05-09T05:45:46.935Z,101441.00
2024-05-09T05:48:18.208Z,101440.00
2024-05-09T05:50:45.982Z,101439.00
2024-05-09T05:53:13.471Z,101439.00
2024-05-09T05:55:41.851Z,101427.00
2024-05-09T05:58:13.307Z,101435.00
2024-05-09T06:00:42.394Z,101433.00
2024-05-09T06:03:12.722Z,101427.00
2024-05-09T06:05:43.314Z,101426.00
2024-05-09T06:08:10.795Z,101433.00
2024-05-09T06:10:40.252Z,101429.00
2024-05-09T06:13:13.025Z,101435.00
2024-05-09T06:15:41.324Z,101430.00
2024-05-09T06:18:10.752Z,101435.00
2024-05-09T06:20:40.390Z,101429.00
2024-05-09T06:23:09.636Z,101426.00
2024-05-09T06:25:37.873Z,101430.00
2024-05-09T06:28:05.750Z,101430.00
2024-05-09T06:33:04.496Z,101420.00
2024-05-09T06:35:31.986Z,101415.00
2024-05-09T06:37:59.120Z,101417.00
2024-05-09T06:40:35.889Z,101422.00
2024-05-09T06:43:10.731Z,101416.00
2024-05-09T06:45:39.893Z,101411.00
2024-05-09T06:48:09.250Z,101413.00
2024-05-09T06:50:38.529Z,101419.00
2024-05-09T06:53:09.881Z,101414.00
2024-05-09T06:55:37.984Z,101410.00
2024-05-09T06:58:11.671Z,101419.00
2024-05-09T07:00:41.284Z,101416.00
2024-05-09T07:03:12.737Z,101409.00
2024-05-09T07:05:41.759Z,101399.00
2024-05-09T07:08:12.086Z,101393.00
2024-05-09T07:10:39.452Z,101409.00
2024-05-09T07:13:16.512Z,101407.00
2024-05-09T07:15:43.872Z,101402.00
2024-05-09T07:18:17.388Z,101414.00
2024-05-09T07:20:46.872Z,101404.00
2024-05-09T07:23:14.816Z,101409.00
2024-05-09T07:25:42.575Z,101400.00
2024-05-09T07:28:20.450Z,101415.00
2024-05-09T07:30:47.960Z,101406.00
2024-05-09T07:33:20.894Z,101404.00
2024-05-09T07:35:49.531Z,101403.00
2024-05-09T07:38:16.719Z,101399.00
2024-05-09T07:40:43.822Z,101397.00
2024-05-09T07:43:11.994Z,101389.00
2024-05-09T07:45:48.833Z,101374.00
2024-05-09T07:52:38.215Z,101385.00
2024-05-09T07:53:47.903Z,101388.00
2024-05-09T07:56:19.929Z,101381.00
2024-05-09T07:58:51.251Z,101374.00
2024-05-09T08:01:19.153Z,101312.00
2024-05-09T08:03:46.806Z,101373.00
2024-05-09T08:06:14.167Z,101379.00
2024-05-09T08:08:41.349Z,101378.00
2024-05-09T08:11:08.474Z,101375.00
2024-05-09T08:13:35.588Z,101383.00
2024-05-09T08:16:02.806Z,101384.00
2024-05-09T08:18:30.276Z,101386.00
2024-05-09T08:20:58.817Z,101388.00
2024-05-09T08:23:25.948Z,101387.00
2024-05-09T08:25:53.223Z,101386.00
2024-05-09T08:28:20.710Z,101395.00
2024-05-09T08:30:48.171Z,101397.00
2024-05-09T08:33:15.797Z,101391.00
2024-05-09T08:35:42.988Z,101392.00
2024-05-09T08:38:10.260Z,101385.00
2024-05-09T08:40:38.367Z,101383.00
2024-05-09T08:43:11.829Z,101379.00
2024-05-09T08:45:44.177Z,101385.00
2024-05-09T08:48:15.167Z,101380.00
2024-05-09T08:50:44.763Z,101378.00
2024-05-09T08:53:14.500Z,101375.00
2024-05-09T08:55:43.494Z,101384.00
2024-05-09T08:58:18.161Z,101390.00
2024-05-09T09:00:46.935Z,101389.00
2024-05-09T09:03:26.828Z,101380.00
2024-05-09T09:06:07.221Z,101378.00
2024-05-09T09:08:34.533Z,101384.00
2024-05-09T09:11:01.821Z,101380.00
2024-05-09T09:13:29.228Z,101373.00
2024-05-09T09:16:00.048Z,101376.00
2024-05-09T09:18:29.341Z,101374.00
2024-05-09T09:20:56.846Z,101373.00
2024-05-09T09:23:24.158Z,101378.00
2024-05-09T09:25:52.046Z,101380.00
2024-05-09T09:28:23.321Z,101373.00
2024-05-09T09:30:50.822Z,101374.00
2024-05-09T09:33:18.548Z,101381.00
2024-05-09T09:35:45.695Z,101389.00
2024-05-09T09:38:18.617Z,101389.00
2024-05-09T09:40:50.103Z,101370.00
2024-05-09T09:43:22.572Z,101379.00
2024-05-09T09:45:53.356Z,101380.00
2024-05-09T09:48:22.557Z,101371.00
2024-05-09T09:50:52.989Z,101369.00
2024-05-09T09:53:22.604Z,101375.00
2024-05-09T09:55:51.187Z,101369.00
2024-05-09T09:58:18.602Z,101379.00
2024-05-09T10:00:46.182Z,101373.00
2024-05-09T10:03:13.525Z,101368.00
2024-05-09T10:05:44.048Z,101376.00
2024-05-09T10:08:14.966Z,101363.00
2024-05-09T10:10:50.562Z,101372.00
2024-05-09T10:13:20.011Z,101358.00
2024-05-09T10:15:52.810Z,101362.00
2024-05-09T10:18:28.376Z,101345.00
2024-05-09T10:20:58.007Z,101350.00
2024-05-09T10:23:34.630Z,101348.00
2024-05-09T10:26:07.346Z,101355.00
2024-05-09T10:28:37.110Z,101344.00
2024-05-09T10:31:15.986Z,101351.00
2024-05-09T10:33:50.252Z,101348.00
2024-05-09T10:36:29.315Z,101346.00
2024-05-09T10:38:56.467Z,101343.00
2024-05-09T10:41:24.237Z,101335.00
2024-05-09T10:43:52.200Z,101335.00
2024-05-09T10:46:20.050Z,101339.00
2024-05-09T10:48:48.624Z,101340.00
2024-05-09T10:51:19.487Z,101342.00
2024-05-09T10:53:48.758Z,101344.00
2024-05-09T10:56:17.314Z,101336.00
2024-05-09T10:58:46.219Z,101332.00
2024-05-09T11:01:14.081Z,101336.00
2024-05-09T11:03:42.473Z,101324.00
2024-05-09T11:06:11.477Z,101321.00
2024-05-09T11:08:39.563Z,101324.00
2024-05-09T11:11:08.935Z,101317.00
2024-05-09T11:13:40.825Z,101311.00
2024-05-09T11:16:21.444Z,101318.00
2024-05-09T11:18:57.162Z,101305.00
2024-05-09T11:21:25.608Z,101296.00
2024-05-09T11:23:53.260Z,101306.00
2024-05-09T11:26:22.238Z,101288.00
2024-05-09T11:28:51.496Z,101303.00
2024-05-09T11:31:19.868Z,101306.00
2024-05-09T11:33:48.406Z,101306.00
2024-05-09T11:36:16.216Z,101303.00
2024-05-09T11:38:43.435Z,101307.00
2024-05-09T11:41:18.609Z,101305.00
2024-05-09T11:43:45.850Z,101301.00
2024-05-09T11:46:13.215Z,101292.00
2024-05-09T11:48:41.676Z,101305.00
2024-05-09T11:51:08.814Z,101289.00
2024-05-09T11:53:35.919Z,101301.00
2024-05-09T11:56:04.022Z,101289.00
2024-05-09T11:58:34.616Z,101290.00
2024-05-09T12:01:03.107Z,101287.00
2024-05-09T12:03:31.000Z,101290.00
2024-05-09T12:05:58.529Z,101298.00
2024-05-09T12:08:26.143Z,101286.00
2024-05-09T12:10:54.587Z,101288.00
2024-05-09T12:13:21.795Z,101228.00
2024-05-09T12:15:49.027Z,101280.00
2024-05-09T12:18:16.279Z,101283.00
2024-05-09T12:20:43.501Z,101273.00
2024-05-09T12:23:10.913Z,101270.00
2024-05-09T12:25:40.904Z,101265.00
2024-05-09T12:28:08.805Z,101269.00
2024-05-09T12:30:40.834Z,101262.00
2024-05-09T12:33:12.179Z,101249.00
2024-05-09T12:35:43.364Z,101252.00
2024-05-09T12:38:13.369Z,101255.00
2024-05-09T12:40:40.503Z,101247.00
2024-05-09T12:43:09.287Z,101258.00
2024-05-09T12:45:37.937Z,101251.00
2024-05-09T12:48:08.519Z,101238.00
2024-05-09T12:50:36.737Z,101243.00
2024-05-09T12:53:05.338Z,101254.00
2024-05-09T12:55:41.163Z,101240.00
2024-05-09T12:58:19.222Z,101246.00
2024-05-09T13:00:47.153Z,101242.00
2024-05-09T13:03:14.937Z,101241.00
2024-05-09T13:05:44.993Z,101241.00
2024-05-09T13:08:13.499Z,101242.00
2024-05-09T13:10:40.810Z,101231.00
2024-05-09T13:13:10.272Z,101231.00
2024-05-09T13:15:37.709Z,101215.00
2024-05-09T13:18:06.376Z,101212.00
2024-05-09T13:20:35.693Z,101220.00
2024-05-09T13:23:06.995Z,101214.00
2024-05-09T13:25:35.341Z,101213.00
2024-05-09T13:28:04.179Z,101202.00
2024-05-09T13:30:39.276Z,101209.00
2024-05-09T13:33:11.794Z,101204.00
2024-05-09T13:35:46.671Z,101200.00
2024-05-09T13:38:21.210Z,101201.00
2024-05-09T13:40:49.877Z,101197.00
2024-05-09T13:43:18.236Z,101192.00
2024-05-09T13:45:46.138Z,101195.00
2024-05-09T13:48:13.704Z,101196.00
2024-05-09T13:50:41.026Z,101183.00
2024-05-09T13:53:09.051Z,101194.00
2024-05-09T13:55:40.503Z,101188.00
2024-05-09T13:58:09.135Z,101182.00
2024-05-09T14:00:45.169Z,101175.00
2024-05-09T14:03:18.663Z,101174.00
2024-05-09T14:05:48.019Z,101166.00
2024-05-09T14:08:15.980Z,101164.00
2024-05-09T14:10:47.260Z,101165.00
2024-05-09T14:13:15.694Z,101161.00
2024-05-09T14:15:43.363Z,101164.00
2024-05-09T14:18:13.506Z,101134.00
2024-05-09T14:20:42.405Z,101150.00
2024-05-09T14:23:09.980Z,101146.00
2024-05-09T14:25:42.030Z,101144.00
2024-05-09T14:28:12.725Z,101146.00
2024-05-09T14:30:42.767Z,101130.00
2024-05-09T14:33:11.627Z,101136.00
2024-05-09T14:35:39.323Z,101128.00
2024-05-09T14:38:08.540Z,101124.00
2024-05-09T14:40:42.086Z,101121.00
2024-05-09T14:43:13.428Z,101127.00
2024-05-09T14:45:41.824Z,101124.00
2024-05-09T14:48:09.853Z,101116.00
2024-05-09T14:50:39.513Z,101120.00
2024-05-09T14:53:13.176Z,101118.00
2024-05-09T14:55:42.226Z,101090.00
2024-05-09T14:58:11.514Z,101087.00
2024-05-09T15:00:46.942Z,101100.00
2024-05-09T15:03:19.549Z,101100.00
2024-05-09T15:05:48.023Z,101088.00
2024-05-09T15:08:18.445Z,101086.00
2024-05-09T15:10:46.585Z,101088.00
2024-05-09T15:13:16.428Z,101088.00
2024-05-09T15:15:44.401Z,101085.00
2024-05-09T15:18:12.020Z,101078.00
2024-05-09T15:20:40.819Z,101077.00
2024-05-09T15:23:08.014Z,101052.00
2024-05-09T15:25:36.744Z,101068.00
2024-05-09T15:28:07.624Z,101066.00
2024-05-09T15:30:35.489Z,101066.00
2024-05-09T15:33:08.978Z,101061.00
2024-05-09T15:35:36.363Z,101064.00
2024-05-09T15:38:04.517Z,101058.00
2024-05-09T15:40:38.918Z,101063.00
2024-05-09T15:43:09.927Z,101058.00
2024-05-09T15:45:39.209Z,101038.00
2024-05-09T15:48:08.452Z,101052.00
2024-05-09T15:50:39.777Z,101059.00
2024-05-09T15:53:11.008Z,101048.00
2024-05-09T15:55:39.804Z,101038.00
2024-05-09T15:58:07.916Z,101046.00
2024-05-09T16:00:40.037Z,101033.00
2024-05-09T16:03:14.540Z,101014.00
2024-05-09T16:05:46.499Z,101034.00
2024-05-09T16:08:15.014Z,101033.00
2024-05-09T16:10:44.673Z,101029.00
2024-05-09T16:13:13.162Z,101026.00
2024-05-09T16:15:43.648Z,101020.00
2024-05-09T16:18:11.246Z,101022.00
2024-05-09T16:20:41.265Z,101025.00
2024-05-09T16:23:10.641Z,101023.00
2024-05-09T16:25:38.099Z,101024.00
2024-05-09T16:28:09.042Z,101029.00
2024-05-09T16:30:41.302Z,101021.00
2024-05-09T16:33:09.398Z,101026.00
2024-05-09T16:35:40.088Z,101023.00
2024-05-09T16:38:08.047Z,101020.00
2024-05-09T16:40:39.712Z,101025.00
2024-05-09T16:43:13.011Z,101026.00
2024-05-09T16:45:44.186Z,101023.00
2024-05-09T16:48:13.164Z,101020.00
2024-05-09T16:50:40.528Z,101023.00
2024-05-09T16:53:08.530Z,101017.00
2024-05-09T16:55:36.477Z,101029.00
2024-05-09T16:58:07.986Z,101017.00
2024-05-09T17:00:41.048Z,101014.00
2024-05-09T17:03:14.022Z,101014.00
2024-05-09T17:05:42.963Z,101016.00
2024-05-09T17:08:10.565Z,101017.00
2024-05-09T17:10:37.858Z,101016.00
2024-05-09T17:13:07.351Z,101020.00
2024-05-09T17:15:37.324Z,101006.00
2024-05-09T17:18:06.857Z,100988.00
2024-05-09T17:20:36.816Z,101012.00
2024-05-09T17:23:12.917Z,101008.00
2024-05-09T17:25:40.918Z,101003.00
2024-05-09T17:28:09.525Z,100990.00
2024-05-09T17:30:39.628Z,101007.00
2024-05-09T17:33:10.259Z,101001.00
2024-05-09T17:35:38.696Z,101003.00
2024-05-09T17:38:09.320Z,101003.00
2024-05-09T17:40:38.178Z,100997.00
2024-05-09T17:43:09.367Z,100994.00
2024-05-09T17:45:39.850Z,100993.00
2024-05-09T17:48:11.021Z,100997.00
2024-05-09T17:50:41.241Z,100993.00
2024-05-09T17:53:09.554Z,100987.00
2024-05-09T17:55:37.106Z,100986.00
2024-05-09T17:58:05.943Z,100989.00
2024-05-09T18:00:39.315Z,100997.00
2024-05-09T18:03:14.313Z,100988.00
2024-05-09T18:05:43.537Z,100989.00
2024-05-09T18:08:14.149Z,100992.00
2024-05-09T18:10:41.823Z,100977.00
2024-05-09T18:13:09.896Z,100989.00
2024-05-09T18:15:37.856Z,100985.00
2024-05-09T18:18:07.521Z,100985.00
2024-05-09T18:20:42.357Z,100986.00
2024-05-09T18:23:18.321Z,100992.00
2024-05-09T18:25:47.643Z,100997.00
2024-05-09T18:28:17.155Z,101003.00
2024-05-09T18:30:44.952Z,101002.00
2024-05-09T18:33:12.570Z,101012.00
2024-05-09T18:35:45.049Z,101012.00
2024-05-09T18:38:12.542Z,101016.00
2024-05-09T18:40:41.872Z,101026.00
2024-05-09T18:43:10.938Z,101029.00
2024-05-09T18:45:38.866Z,101012.00
2024-05-09T18:48:08.617Z,101035.00
2024-05-09T18:50:39.694Z,101026.00
2024-05-09T18:53:11.409Z,101030.00
2024-05-09T18:55:39.723Z,101032.00
2024-05-09T18:58:07.513Z,101045.00
2024-05-09T19:00:38.692Z,101047.00
2024-05-09T19:03:11.246Z,101042.00
2024-05-09T19:05:41.464Z,101047.00
2024-05-09T19:08:09.294Z,101050.00
2024-05-09T19:10:39.037Z,101041.00
2024-05-09T19:13:11.814Z,101050.00
2024-05-09T19:15:42.199Z,101058.00
2024-05-09T19:18:12.087Z,101071.00
2024-05-09T19:20:39.790Z,101049.00
2024-05-09T19:23:07.560Z,101053.00
2024-05-09T19:25:36.056Z,101052.00
2024-05-09T19:28:05.188Z,101054.00
2024-05-09T19:30:39.439Z,101061.00
2024-05-09T19:33:11.273Z,101053.00
2024-05-09T19:35:39.735Z,101057.00
2024-05-09T19:38:07.276Z,101063.00
2024-05-09T19:40:35.404Z,101047.00
2024-05-09T19:43:04.979Z,101032.00
2024-05-09T19:45:34.032Z,101051.00
2024-05-09T19:48:02.307Z,101048.00
2024-05-09T19:50:37.369Z,101043.00
2024-05-09T19:53:10.378Z,101053.00
2024-05-09T19:55:38.124Z,101030.00
2024-05-09T19:58:08.796Z,101043.00
2024-05-09T20:00:39.624Z,101042.00
2024-05-09T20:03:09.493Z,101042.00
2024-05-09T20:05:37.774Z,101048.00
2024-05-09T20:08:06.253Z,101032.00
2024-05-09T20:10:35.515Z,101041.00
2024-05-09T20:13:06.425Z,101035.00
2024-05-09T20:15:36.843Z,101047.00
2024-05-09T20:18:05.544Z,101038.00
2024-05-09T20:20:39.135Z,101043.00
2024-05-09T20:23:13.058Z,101035.00
2024-05-09T20:25:41.395Z,101047.00
2024-05-09T20:28:08.855Z,101047.00
2024-05-09T20:30:36.826Z,101036.00
2024-05-09T20:33:07.342Z,101024.00
2024-05-09T20:35:35.924Z,101028.00
2024-05-09T20:38:03.931Z,101032.00
2024-05-09T20:40:35.993Z,101038.00
2024-05-09T20:43:07.096Z,101024.00
2024-05-09T20:45:34.866Z,101029.00
2024-05-09T20:48:02.583Z,101027.00
2024-05-09T20:50:37.309Z,101029.00
2024-05-09T20:53:11.272Z,101036.00
2024-05-09T20:55:40.523Z,101029.00
2024-05-09T20:58:08.725Z,101032.00
2024-05-09T21:00:40.378Z,101021.00
2024-05-09T21:03:11.895Z,101025.00
2024-05-09T21:05:39.872Z,101015.00
2024-05-09T21:08:07.798Z,101014.00
2024-05-09T21:10:36.369Z,101019.00
2024-05-09T21:13:04.684Z,101017.00
2024-05-09T21:15:32.301Z,101012.00
2024-05-09T21:17:59.767Z,101011.00
2024-05-09T21:22:58.236Z,101009.00
2024-05-09T21:25:25.794Z,101010.00
2024-05-09T21:27:53.553Z,101013.00
2024-05-09T21:30:31.883Z,101006.00
2024-05-09T21:33:09.539Z,101015.00
2024-05-09T21:35:38.172Z,101015.00
2024-05-09T21:38:05.778Z,101010.00
2024-05-09T21:40:35.300Z,101004.00
2024-05-09T21:43:05.208Z,100982.00
2024-05-09T21:45:33.762Z,101005.00
2024-05-09T21:48:03.506Z,101013.00
2024-05-09T21:50:37.068Z,101000.00
2024-05-09T21:53:07.953Z,100996.00
2024-05-09T21:55:35.219Z,100997.00
2024-05-09T21:58:02.924Z,101000.00
2024-05-09T22:00:36.147Z,101001.00
2024-05-09T22:03:09.107Z,100987.00
2024-05-09T22:05:38.129Z,101008.00
2024-05-09T23:19:37.720Z,100946.00
2024-05-09T23:22:05.208Z,100947.00
2024-05-09T23:24:33.373Z,100942.00
2024-05-09T23:27:03.286Z,100935.00
2024-05-09T23:29:58.001Z,100927.00
2024-05-09T23:32:25.399Z,100924.00
2024-05-09T23:34:52.864Z,100925.00
2024-05-09T23:37:20.235Z,100918.00
2024-05-09T23:39:47.623Z,100916.00
2024-05-09T23:42:15.043Z,100916.00
2024-05-09T23:45:46.240Z,100914.00
2024-05-09T23:48:14.010Z,100910.00
2024-05-09T23:50:41.892Z,100907.00
2024-05-09T23:53:12.150Z,100897.00
2024-05-09T23:55:39.693Z,100909.00
2024-05-09T23:58:08.454Z,100903.00
